AirNav   Everest Fuels
 
 492 users online  

KJCA Jackson County Airport
Jefferson, Georgia, USA

GOING TO JEFFERSON?


FAA INFORMATION EFFECTIVE 19 MAY 2022

Location

FAA Identifier: JCA
Lat/Long: 34-10-34.1000N 083-33-42.1000W
34-10.568333N 083-33.701667W
34.1761389,-83.5616944
(estimated)
Elevation: 950.5 ft. / 289.7 m (surveyed)
Variation: 05W (2010)
From city: 3 miles NE of JEFFERSON, GA
Time zone: UTC -4 (UTC -5 during Standard Time)
Zip code: 30529

Airport Operations

Airport use: Open to the public
Activation date: 11/1957
Control tower: no
ARTCC: ATLANTA CENTER
FSS: MACON FLIGHT SERVICE STATION
NOTAMs facility: MCN (NOTAM-D service available)
Attendance: MON-FRI 0800-1700
Wind indicator: lighted
Segmented circle: yes
Lights: MIRL RY 17/35 PRESET ON LOW INTST. TO INCR INTST - CTAF.
Beacon: white-green (lighted land airport)
Operates sunset to sunrise.

Airport Communications

CTAF/UNICOM: 122.975
WX AWOS-3PT: 118.125 (706-387-6477)
ATLANTA APPROACH: 132.475 ;0615-2200
ATLANTA DEPARTURE: 132.475 ;0615-2200
WX AWOS-3 at WDR (13 nm SW): 118.575 (770-868-0642)
WX ASOS at GVL (15 nm NW): 126.475 (770-532-4687)
WX ASOS at AHN (18 nm SE): 132.875 (706-613-7373)
WX AWOS-3 at AJR (19 nm N): 119.175 (706-778-3675)
  • APCH/DEP SVC PRVDD BY ATLANTA TRACON 0615-2200 ON FREQS 132.475/291.1 OTHER TIMES BY ATLANTA ARTCC ON FREQS 127.5/316.05 (ATHENS RCAG).

Nearby radio navigation aids

VOR radial/distance  VOR name  Freq  Var
AHNr319/18.1ATHENS VOR/DME109.6000E
ODFr203/33.8FOOTHILLS VOR/DME113.4000E

 
NDB name  Hdg/Dist  Freq  Var  ID
BARROW COUNTY010/14.540405WBMW -... -- .--
FLOWERY BRANCH098/17.236503WFKV ..-. -.- ...-
ALCOVY022/34.637003WVOF ...- --- ..-.

Airport Services

Fuel available: 100LL JET-A+
Parking: hangars and tiedowns
Airframe service: MAJOR
Powerplant service: MINOR
Bottled oxygen: NONE
Bulk oxygen: NONE

Runway Information

Runway 17/35

Dimensions: 5010 x 75 ft. / 1527 x 23 m
Surface: asphalt, in good condition
Weight bearing capacity: 
Single wheel: 30.0
Double wheel: 43.0
Runway edge lights: medium intensity
RUNWAY 17  RUNWAY 35
Latitude: 34-10.963483N34-10.172013N
Longitude: 083-33.843592W083-33.559513W
Elevation: 931.1 ft.950.5 ft.
Traffic pattern: leftleft
Runway heading: 168 magnetic, 163 true348 magnetic, 343 true
Markings: nonprecision, in good conditionnonprecision, in good condition
Visual slope indicator: 2-light PAPI on left (3.00 degrees glide path)2-light PAPI on left (3.00 degrees glide path)
Touchdown point: yes, no lightsyes, no lights
Obstructions: 31 ft. trees, 1449 ft. from runway, 40:1 slope to clear25 ft. trees, 825 ft. from runway, 326 ft. right of centerline, 25:1 slope to clear

Airport Ownership and Management from official FAA records

Ownership: Publicly-owned
Owner: JACKSON COUNTY, C/O COUNTY MGR.
67 ATHENS STREET
JEFFERSON, GA 30549
Phone 706-367-6314
Manager: TOM STRONG
500 SKY HARBOR DRIVE
JEFFERSON, GA 30549
Phone 706-367-1493

Airport Operational Statistics

Aircraft based on the field: 45
Single engine airplanes: 35
Multi engine airplanes: 2
Helicopters: 4
Ultralights: 4
    
Aircraft operations: avg 96/day *
67% transient general aviation
29% local general aviation
4% military
* for 12-month period ending 31 December 2020

Additional Remarks

DEER ON & INVOF ARPT.
FUEL 24 HR CREDIT CARD SVC AVBL.
FOR APCH/DEP SVC CTC ATLANTA APCH AT 678-364-6131. WHEN ATLANTA APCH UNAVBL CTC ATLANTA ARTCC AT 770-210-7692.

Instrument Procedures

NOTE: All procedures below are presented as PDF files. If you need a reader for these files, you should download the free Adobe Reader.

NOT FOR NAVIGATION. Please procure official charts for flight.
FAA instrument procedures published for use from 19 May 2022 at 0901Z to 16 June 2022 at 0900Z.

 
IAPs - Instrument Approach Procedures
RNAV (GPS) RWY 17   download (256KB)
RNAV (GPS) RWY 35   download (239KB)
VOR/DME RWY 35   download (197KB)
NOTE: Special Alternate Minimums apply   download (48KB)
NOTE: Special Take-Off Minimums/Departure Procedures apply   download (288KB)

Other nearby airports with instrument procedures:

KWDR - Barrow County Airport (13 nm SW)
KGVL - Lee Gilmer Memorial Airport (15 nm NW)
KAHN - Athens/Ben Epps Airport (18 nm SE)
KAJR - Habersham County Airport (19 nm N)
KLZU - Gwinnett County Airport-Briscoe Field (23 nm SW)
 
Loc | Ops | Rwys | IFR | FBO | Links
Com | Nav | Svcs | Stats | Notes
Area around KJCA (Jackson County Airport)
 
Road maps at: MapQuest Bing Google
 
Aerial photo
WARNING: Photo may not be current or correct
Aerial photo of KJCA (Jackson County Airport)
Taken in 2009
looking north.

Do you have a better or more recent aerial photo of Jackson County Airport that you would like to share? If so, please send us your photo.

 
Sectional chart

 
Airport diagram
CAUTION: Diagram may not be current
Diagram of KJCA (Jackson County Airport)
 
Airport distance calculator
Flying to Jackson County Airport? Find the distance to fly.

From to KJCA

Sunrise and sunset
Times for 28-May-2022
 Local
(UTC-4)
 Zulu
(UTC)
Morning civil twilight05:5709:57
Sunrise06:2610:26
Sunset20:3700:37
Evening civil twilight21:0601:06

Current date and time
Zulu (UTC)  28-May-2022 10:08:17
Local (UTC-4)  28-May-2022 06:08:17
 
METAR
KJCA 280955Z AUTO 29005KT 10SM CLR 14/14 A2993 RMK AO2 T01400137
KWDR 
13nm SW 
280955Z AUTO 31004KT 10SM CLR 15/12 A2994 RMK AO2 LTG DSNT SE
KGVL 
15nm W 
280953Z AUTO 28003KT 10SM CLR 14/12 A2994 RMK AO2 SLP126 T01440122
KAHN 
18nm SE 
280951Z AUTO 27003KT 9SM CLR 15/13 A2991 RMK AO2 SLP123 T01500133
KAJR 
19nm N 
280955Z AUTO 00000KT 10SM CLR 15/12 A2992 RMK AO2 T01500121
TAF
KAHN 
18nm SE 
280731Z 2808/2906 00000KT P6SM SKC FM282300 25004KT P6SM FEW250
NOTAMs
Click for the latest NOTAMs
NOTAMs are issued by the DoD/FAA and will open in a separate window not controlled by AirNav.

 

 
 

FBO, Fuel Providers, and Aircraft Ground Support

  
 Business Name 
 
 Contact 
 
 Services / Description 
 
Fuel Prices
 
Comments
  
 Jackson County
706-367-1493
[web site]
[email]
Airport management, Aviation fuel, Aircraft parking (ramp or tiedown), Hangar leasing / sales, Courtesy transportation, ...

More info about Jackson County
Titan
100LL Jet A
FS --- $4.99 
SS $5.89 $4.89 
GUARANTEED
 
   2 read write
FS=Full service
SS=Self service
Update Fuel Prices
 

Would you like to see your business listed on this page?

 If your business provides an interesting product or service to pilots, flight crews, aircraft, or users of the Jackson County Airport, you should consider listing it here.  To start the listing process, click on the button below
 
Add a business
 

Other Pages about Jackson County Airport

www.jacksoncountygov.com/...
 
Update a link
 
Copyright © AirNav, LLC. All rights reserved. Privacy Policy  Contact